Impacts METAR Board INFO
IDs:

KTPA - Tampa Intl Arpt, FL, US

Updated at: 0627 UTC 14 Dec 2017
Potential Impact None Slight Moderate High
Time13/18Z 13/19Z 13/20Z 13/21Z 13/22Z 13/23Z 14/00Z 14/01Z 14/02Z 14/03Z 14/04Z 14/05Z 14/06Z
VIS10 10 10 10 10 10 10 10 10 10 10 10 10
CIG-- -- -- -- -- -- -- -- -- -- -- -- --
CoverFEWFEWFEWFEWFEWFEWCLRCLRCLRCLRCLRCLRCLR
FltCatVFRVFRVFRVFRVFRVFRVFRVFRVFRVFRVFRVFRVFR
WX--------------------------
WDir250250270260290310310001200140150
WSpd8 8 9 9 7 4 4 0 0 3 0 4 5
WGst-- -- -- -- -- -- -- -- -- -- -- -- --
Raw hourly METARs
KTPA 131753Z 25008KT 10SM FEW250 16/04 A3010 RMK AO2 SLP193 T01560039 10167 20089 58023
KTPA 131853Z 25008KT 10SM FEW250 17/01 A3008 RMK AO2 SLP186 T01670011
KTPA 131953Z 27009KT 10SM FEW300 17/M02 A3007 RMK AO2 SLP183 T01671017
KTPA 132053Z 26009KT 10SM FEW250 FEW320 16/02 A3007 RMK AO2 SLP182 T01610017 56010
KTPA 132153Z 29007KT 10SM FEW250 FEW320 15/01 A3008 RMK AO2 SLP187 T01500006
KTPA 132253Z 31004KT 10SM FEW250 14/03 A3009 RMK AO2 SLP190 T01390033
KTPA 132353Z 31004KT 10SM CLR 12/05 A3010 RMK AO2 SLP194 T01220050 10172 20122 51012
KTPA 140053Z 00000KT 10SM CLR 12/06 A3009 RMK AO2 SLP190 T01170056
KTPA 140153Z 00000KT 10SM CLR 11/06 A3009 RMK AO2 SLP189 T01110061
KTPA 140253Z 12003KT 10SM CLR 12/06 A3008 RMK AO2 SLP186 T01220061 56008
KTPA 140353Z 00000KT 10SM CLR 12/07 A3008 RMK AO2 SLP184 T01170067
KTPA 140453Z 14004KT 10SM CLR 12/08 A3006 RMK AO2 SLP179 T01220083 401720089
KTPA 140553Z 15005KT 10SM CLR 13/09 A3005 RMK AO2 SLP174 T01330094 10133 20106 58012